Announcements:Want to see something added? Can you write a mobile app? Email Mr. Reynolds

Nearby METAR Reports

 

KMIC - Crystal, Minnesota, USA
Distance from station: N 7mi, 16km
Updated: Mon, 05/10/2021 2:53am CDT
Overcast
Overcast
 Wind from NE
Wind: NE 7 mph , 11 km/h
Temperature: 43°F , 6°C
Wind Chill: 39°F , 4°C
Dew Point: 27°F , -3°C
Humidity: 53%
Barometer: 30.13 inHg , 1020.3 hPa
Clouds: Overcast
Visibility: 10 miles , 16 km
Cloud details: Overcast 10000 ft
2021/05/10 07:53 KMIC 100753Z 04006KT 10SM OVC100 06/M03 A3013 RMK AO2 SLP204 T00611033
KANE - Anoka-Blaine, Minnesota, USA
Distance from station: N 16mi, 27km
Updated: Mon, 05/10/2021 2:55am CDT
Overcast
Overcast
 Wind from N
Wind: N 5 mph , 7 km/h
Temperature: 43°F , 6°C
Wind Chill: 40°F , 4°C
Dew Point: 30°F , -1°C
Humidity: 61%
Barometer: 30.14 inHg , 1020.7 hPa
Clouds: Overcast
Visibility: 10 miles , 16 km
Cloud details: Partly cloudy 9000 ft
Overcast 11000 ft
2021/05/10 07:55 KANE 100755Z AUTO 01004KT 10SM SCT090 OVC110 06/M01 A3014 RMK AO2
KFCM - Flying Cloud-Eden Prairie, Minnesota, USA
Distance from station: SW 17mi, 28km
Updated: Mon, 05/10/2021 2:53am CDT
Clear
Clear
 Wind from NE
Wind: NE 8 mph , 13 km/h
Temperature: 43°F , 6°C
Wind Chill: 38°F , 3°C
Dew Point: 28°F , -2°C
Humidity: 57%
Barometer: 30.11 inHg , 1019.6 hPa
Clouds: Clear
Visibility: 10 miles , 16 km
2021/05/10 07:53 KFCM 100753Z AUTO 05007KT 10SM CLR 06/M02 A3011 RMK AO2 SLP200 T00611022
 
KMSP - Minneapolis-St. Paul, Minnesota, USA
Distance from station: SE 16mi, 27km
Updated: Mon, 05/10/2021 2:53am CDT
Mostly cloudy
Mostly cloudy
 Wind from NE
Wind: NE 8 mph , 13 km/h
Temperature: 45°F , 7°C
Wind Chill: 41°F , 5°C
Dew Point: 27°F , -3°C
Humidity: 49%
Barometer: 30.13 inHg , 1020.3 hPa
Clouds: Mostly cloudy
Visibility: 10 miles , 16 km
Cloud details: Mostly cloudy 10000 ft
2021/05/10 07:53 KMSP 100753Z 05007KT 10SM BKN100 07/M03 A3013 RMK AO2 SLP206 T00671033
KRST - Rochester, Minnesota, USA
Distance from station: SE 99mi, 159km
Updated: Mon, 05/10/2021 2:54am CDT
Partly cloudy
Partly cloudy
 Wind from NNE
Wind: NNE 8 mph , 13 km/h
Temperature: 43°F , 6°C
Wind Chill: 38°F , 3°C
Dew Point: 25°F , -4°C
Humidity: 49%
Barometer: 30.08 inHg , 1018.6 hPa
Clouds: Partly cloudy
Visibility: 10 miles , 16 km
Cloud details: Partly cloudy 9500 ft
2021/05/10 07:54 KRST 100754Z AUTO 03007KT 10SM SCT095 06/M04 A3008 RMK AO2 SLP191 T00561039
KSGS - Fleming/St Paul, Minnesota, USA
Distance from station: ESE 23mi, 37km
Updated: Mon, 05/10/2021 2:35am CDT
Partly cloudy
Partly cloudy
 Wind from NE
Wind: NE 5 mph , 7 km/h
Temperature: 45°F , 7°C
Wind Chill: 42°F , 6°C
Dew Point: 27°F , -3°C
Humidity: 49%
Barometer: 30.13 inHg , 1020.3 hPa
Clouds: Partly cloudy
Visibility: 10 miles , 16 km
Cloud details: Partly cloudy 10000 ft
2021/05/10 07:35 KSGS 100735Z AUTO 05004KT 10SM SCT100 07/M03 A3013 RMK AO2 T00671033
 
KDLH - Duluth, Minnesota, USA
Distance from station: NNE 164mi, 265km
Updated: Mon, 05/10/2021 1:55am CDT
Mostly cloudy
Mostly cloudy
 Wind from N
Wind: N 6 mph , 9 km/h
Temperature: 34°F , 1°C
Wind Chill: 29°F , -2°C
Dew Point: 27°F , -3°C
Humidity: 75%
Barometer: 30.16 inHg , 1021.3 hPa
Clouds: Mostly cloudy
Visibility: 10 miles , 16 km
Cloud details: Mostly cloudy 7000 ft
2021/05/10 06:55 KDLH 100655Z 36005KT 10SM BKN070 01/M03 A3016 RMK AO2 SLP228 T00111033
KBRD - Brainard, Minnesota, USA
Distance from station: NNW 127mi, 25km
Updated: Mon, 05/10/2021 2:53am CDT
Mostly cloudy
Mostly cloudy
 Wind from NNE
Wind: NNE 5 mph , 7 km/h
Temperature: 37°F , 3°C
Wind Chill: 33°F , 1°C
Dew Point: 27°F , -3°C
Humidity: 65%
Barometer: 30.18 inHg , 1022 hPa
Clouds: Mostly cloudy
Visibility: 10 miles , 16 km
Cloud details: Mostly cloudy 8000 ft
2021/05/10 07:53 KBRD 100753Z AUTO 03004KT 10SM BKN080 03/M03 A3018 RMK AO2 SLP229 T00281033